Terminal Aerodrome Forecast
Issued by NWS

Home | Current Version | Previous Version | Text Only | Print | Product List | Glossary Off
Versions: 1 2 3 4 5 6 7 8 9 10 11 12 13 14 15 16 17 18

037
FTUS43 KTOP 271133
TAFMHK
TAF
KMHK 271133Z 2712/2812 10005KT 6SM BR SCT008
     FM271300 11006KT P6SM SCT015
     FM271600 14010G20KT P6SM SCT100
     FM280400 17011KT P6SM SCT250 WS015/18045KT=

USA.gov is the U.S. government's official web portal to all federal, state and local government web resources and services.